Robert C. Seamans — WDA4486 — position and weather

sailwx.info

Track history (hours):
 
Tides and Currents Weather Stations Pressure Air Temp Water Temp Dewpoint Dewpoint Depression Visibility Wind Speed Wind Dir Waves Ship Positions

Oceanographic research ship Robert C. Seamans (USA)

Ship's website: http://www.sea.edu/sea2000/Supporting2000/RobertSeamansIntro.htm

Detailed information on ship capabilities available from University of Delaware's Ocean Information Center.

Owner: Sea Education Association Corporation, Woods Hole, MA. More information available from US FCC via Universal Licensing System and Coast Guard Vessel Documentation Center.

Last reported at 2018-Jan-07 17:48 UTC. Time now 2018-Jan-18 17:52 UTC.
Position S 36°07' E 174°45'.
Warning: this ship's position is 11 days out of date.

Type: Sailing vessel. MMSI: 369503000.

Date/timePositionNaut miles runAvg speedWind from/ knotsBaromVisibWave heightAir tempDewpointWater temp
2018-Jan-07 17:48S 36°07' E 174°45'2 1.6
2018-Jan-07 16:40S 36°08' E 174°46'1 2.0
2018-Jan-07 16:11S 36°09' E 174°47'9 2.3
2018-Jan-07 12:24S 36°16' E 174°53'1 2.3
2018-Jan-07 12:00S 36°17' E 174°53'1 2.3
2018-Jan-07 11:30S 36°18' E 174°53'2 2.4
2018-Jan-07 10:40S 36°20' E 174°54'0 2.7
2018-Jan-07 10:29S 36°20' E 174°55'1 2.6
2018-Jan-07 10:00S 36°21' E 174°55'1 2.6
2018-Jan-07 09:30S 36°22' E 174°56'2 3.2
2018-Jan-07 09:00S 36°24' E 174°57'2 3.3
2018-Jan-07 08:30S 36°25' E 174°58'2 3.3
2018-Jan-07 08:00S 36°27' E 174°58'2 3.4
2018-Jan-07 07:30S 36°29' E 174°58'2 3.4
2018-Jan-07 07:00S 36°30' E 174°58'2 4.8
2018-Jan-07 06:30S 36°33' E 174°58'3 6.5
2018-Jan-07 06:00S 36°36' E 174°57'3 6.5
2018-Jan-07 05:30S 36°39' E 174°56'3 6.6
2018-Jan-07 05:00S 36°42' E 174°54'3 6.6
2018-Jan-07 04:29S 36°44' E 174°51'3 6.9
2018-Jan-07 04:00S 36°47' E 174°48'3 6.0
2018-Jan-07 03:26S 36°50' E 174°48'2 3.0
2018-Jan-07 02:55S 36°50' E 174°46'0 0.0
2018-Jan-07 02:25S 36°50' E 174°46'0 0.0
2018-Jan-07 01:55S 36°50' E 174°46'0 0.0
2018-Jan-07 01:25S 36°50' E 174°46'0 0.0
2018-Jan-07 00:25S 36°50' E 174°46'0 0.0
2018-Jan-06 23:59S 36°50' E 174°46'0 0.0
2018-Jan-06 23:23S 36°50' E 174°46'0 0.0
2018-Jan-06 22:59S 36°50' E 174°46'0 0.0
2018-Jan-06 22:29S 36°50' E 174°46'0 0.0
2018-Jan-06 21:59S 36°50' E 174°46'0 0.0
2018-Jan-06 21:29S 36°50' E 174°46'0 0.0
2018-Jan-06 20:59S 36°50' E 174°46'0 0.0
2018-Jan-06 20:29S 36°50' E 174°46'0 0.0
2018-Jan-06 19:53S 36°50' E 174°46'0 0.0
2018-Jan-06 19:23S 36°50' E 174°46'0 0.0
2018-Jan-06 18:59S 36°50' E 174°46'0 0.0
2018-Jan-06 18:29S 36°50' E 174°46'0 0.0
2018-Jan-06 17:53S 36°50' E 174°46'0 0.0
2018-Jan-06 17:29S 36°50' E 174°46'0 0.0
2018-Jan-06 16:59S 36°50' E 174°46'0 0.0
2018-Jan-06 16:29S 36°50' E 174°46'0 0.0
2018-Jan-06 15:59S 36°50' E 174°46'0 0.0
2018-Jan-06 15:29S 36°50' E 174°46'0 0.0
2018-Jan-06 14:59S 36°50' E 174°46'0 0.0
2018-Jan-06 14:29S 36°50' E 174°46'0 0.1
2018-Jan-06 13:59S 36°50' E 174°46'0 0.1
2018-Jan-06 13:29S 36°50' E 174°46'0 0.0
2018-Jan-06 12:59S 36°50' E 174°46'0 0.0
2018-Jan-06 12:29S 36°50' E 174°46'0 0.0
2018-Jan-06 11:59S 36°50' E 174°46'0 0.0
2018-Jan-06 11:29S 36°50' E 174°46'0 0.0
2018-Jan-06 10:59S 36°50' E 174°46'0 0.0
2018-Jan-06 10:29S 36°50' E 174°46'0 0.0
2018-Jan-06 09:59S 36°50' E 174°46'0 0.0
2018-Jan-06 09:29S 36°50' E 174°46'0 0.0
2018-Jan-06 08:59S 36°50' E 174°46'0 0.0
2018-Jan-06 08:29S 36°50' E 174°46'0 0.0
2018-Jan-06 07:53S 36°50' E 174°46'0 0.0
2018-Jan-06 07:29S 36°50' E 174°46'0 0.0
2018-Jan-06 06:59S 36°50' E 174°46'0 0.0
2018-Jan-06 06:29S 36°50' E 174°46'0 0.0
2018-Jan-06 05:59S 36°50' E 174°46'0 0.0
2018-Jan-06 05:23S 36°50' E 174°46'0 0.0
2018-Jan-06 04:59S 36°50' E 174°46'0 0.0
2018-Jan-06 04:29S 36°50' E 174°46'0 0.0
2018-Jan-06 03:59S 36°50' E 174°46'0 0.0
2018-Jan-06 03:29S 36°50' E 174°46'0 0.0
2018-Jan-06 02:59S 36°50' E 174°46'0 0.0
2018-Jan-06 02:29S 36°50' E 174°46'0 0.0
2018-Jan-06 01:59S 36°50' E 174°46'0 0.0
2018-Jan-06 01:29S 36°50' E 174°46'0 0.0
2018-Jan-06 00:59S 36°50' E 174°46'0 0.0
2018-Jan-06 00:29S 36°50' E 174°46'0 0.0
2018-Jan-05 23:59S 36°50' E 174°46'0 0.0
2018-Jan-05 23:29S 36°50' E 174°46'0 0.0
2018-Jan-05 22:59S 36°50' E 174°46'0 0.0
2018-Jan-05 22:29S 36°50' E 174°46'0 0.0
2018-Jan-05 21:59S 36°50' E 174°46'0 0.0
2018-Jan-05 21:23S 36°50' E 174°46'0 0.0
2018-Jan-05 20:59S 36°50' E 174°46'0 0.0
2018-Jan-05 20:29S 36°50' E 174°46'0 0.0
2018-Jan-05 20:00S 36°50' E 174°46'1 2.2
2018-Jan-05 19:30S 36°50' E 174°47'3 6.4
2018-Jan-05 19:01S 36°49' E 174°51'3 5.4
2018-Jan-05 18:30S 36°49' E 174°54'3 0.4
2018-Jan-05 10:28S 36°46' E 174°56'1 0.5
2018-Jan-05 08:51S 36°46' E 174°57'2 4.5
2018-Jan-05 08:30S 36°44' E 174°56'3 6.8
2018-Jan-05 08:00S 36°41' E 174°54'3 6.5
2018-Jan-05 07:30S 36°38' E 174°53'3 6.6
2018-Jan-05 07:01S 36°35' E 174°52'3 5.9
2018-Jan-05 06:30S 36°32' E 174°52'3 6.0
2018-Jan-05 06:00S 36°29' E 174°51'2 4.3
2018-Jan-05 05:30S 36°27' E 174°52'0 0.1
2018-Jan-05 05:00S 36°27' E 174°52'0 0.1
2018-Jan-05 04:30S 36°27' E 174°52'0 0.0
2018-Jan-05 04:00S 36°27' E 174°52'0 0.0
2018-Jan-05 03:30S 36°27' E 174°52'0 0.0
2018-Jan-05 03:00S 36°27' E 174°52'0 0.0
2018-Jan-05 02:30S 36°27' E 174°52'0 0.0
2018-Jan-05 01:54S 36°27' E 174°52'0 0.0
2018-Jan-05 01:30S 36°27' E 174°52'0 0.0
2018-Jan-05 00:54S 36°27' E 174°52'0 0.0
2018-Jan-05 00:30S 36°27' E 174°52'0 0.0
2018-Jan-05 00:00S 36°27' E 174°52'0 0.0
2018-Jan-04 23:30S 36°27' E 174°52'0 0.0
2018-Jan-04 23:00S 36°27' E 174°52'0 0.0
2018-Jan-04 22:30S 36°27' E 174°52'0 0.0
2018-Jan-04 22:00S 36°27' E 174°52'0 0.0
2018-Jan-04 21:30S 36°27' E 174°52'0 0.0
2018-Jan-04 21:00S 36°27' E 174°52'0 0.0
2018-Jan-04 20:30S 36°27' E 174°52'0 0.1
2018-Jan-04 20:00S 36°27' E 174°52'0 0.0
2018-Jan-04 19:30S 36°27' E 174°52'0 0.0
2018-Jan-04 19:00S 36°27' E 174°52'0 0.0
2018-Jan-04 18:30S 36°27' E 174°52'0 0.0
2018-Jan-04 18:00S 36°27' E 174°52'0 0.0
2018-Jan-04 17:30S 36°27' E 174°52'0 0.0
2018-Jan-04 17:00S 36°27' E 174°52'0 0.0
2018-Jan-04 16:30S 36°27' E 174°52'0 0.0
2018-Jan-04 16:00S 36°27' E 174°52'0 0.0
2018-Jan-04 15:30S 36°27' E 174°52'0 0.0
2018-Jan-04 15:00S 36°27' E 174°52'0 0.0
2018-Jan-04 14:30S 36°27' E 174°52'0 0.0
2018-Jan-04 14:00S 36°27' E 174°52'0 0.0
2018-Jan-04 13:30S 36°27' E 174°52'0 0.0
2018-Jan-04 13:00S 36°27' E 174°52'0 0.0
2018-Jan-04 12:30S 36°27' E 174°52'0 0.0
2018-Jan-04 12:00S 36°27' E 174°52'0 0.0
2018-Jan-04 11:30S 36°27' E 174°52'0 0.0
2018-Jan-04 11:00S 36°27' E 174°52'0 0.1
2018-Jan-04 10:30S 36°27' E 174°52'0 0.0
2018-Jan-04 10:00S 36°27' E 174°52'0 0.0
2018-Jan-04 09:30S 36°27' E 174°52'0 0.0
2018-Jan-04 09:00S 36°27' E 174°52'0 0.0
2018-Jan-04 08:30S 36°27' E 174°52'0 0.1
2018-Jan-04 08:00S 36°27' E 174°52'0 0.1
2018-Jan-04 07:30S 36°27' E 174°52'0 0.1
2018-Jan-04 07:00S 36°27' E 174°52'0 0.1
2018-Jan-04 06:30S 36°27' E 174°52'0 0.0
2018-Jan-04 06:00S 36°27' E 174°52'0 0.0
2018-Jan-04 05:30S 36°27' E 174°52'0 0.1
2018-Jan-04 05:00S 36°27' E 174°52'0 0.1
2018-Jan-04 04:30S 36°27' E 174°52'0 0.0
2018-Jan-04 04:00S 36°27' E 174°52'0 0.0
2018-Jan-04 03:30S 36°27' E 174°52'0 0.0
2018-Jan-04 03:00S 36°27' E 174°52'0 0.1
2018-Jan-04 02:30S 36°27' E 174°52'0 0.1
2018-Jan-04 02:00S 36°27' E 174°52'0 0.0
2018-Jan-04 01:30S 36°27' E 174°52'0 0.0
2018-Jan-04 01:00S 36°27' E 174°52'0 0.1
2018-Jan-04 00:30S 36°27' E 174°52'0 0.1
2018-Jan-04 00:00S 36°27' E 174°52'0 0.0
2018-Jan-03 23:30S 36°27' E 174°52'0 0.0
2018-Jan-03 23:00S 36°27' E 174°52'0 0.0
2018-Jan-03 22:30S 36°27' E 174°52'0 0.0
2018-Jan-03 22:00S 36°27' E 174°52'0 0.0
2018-Jan-03 21:24S 36°27' E 174°52'0 0.0
2018-Jan-03 21:00S 36°27' E 174°52'0 0.0
2018-Jan-03 20:30S 36°27' E 174°52'0 0.0
2018-Jan-03 20:00S 36°27' E 174°52'0 0.0
2018-Jan-03 19:30S 36°27' E 174°52'0 0.0
2018-Jan-03 19:00S 36°27' E 174°52'0 0.0
2018-Jan-03 18:30S 36°27' E 174°52'0 0.0
2018-Jan-03 18:00S 36°27' E 174°52'0 0.0
2018-Jan-03 17:30S 36°27' E 174°52'0 0.0
2018-Jan-03 17:00S 36°27' E 174°52'0 0.0
2018-Jan-03 16:30S 36°27' E 174°52'0 0.0
2018-Jan-03 16:00S 36°27' E 174°52'0 0.0
2018-Jan-03 15:30S 36°27' E 174°52'0 0.0
2018-Jan-03 15:00S 36°27' E 174°52'0 0.1
2018-Jan-03 14:30S 36°27' E 174°52'0 0.1
2018-Jan-03 14:00S 36°27' E 174°52'0 0.0
2018-Jan-03 13:30S 36°27' E 174°52'0 0.0
2018-Jan-03 13:00S 36°27' E 174°52'0 0.1
2018-Jan-03 12:30S 36°27' E 174°52'0 0.0
2018-Jan-03 11:54S 36°27' E 174°52'0 0.0
2018-Jan-03 11:30S 36°27' E 174°52'0 0.0
2018-Jan-03 11:00S 36°27' E 174°52'0 0.0
2018-Jan-03 10:30S 36°27' E 174°52'0 0.0
2018-Jan-03 10:00S 36°27' E 174°52'0 0.0
2018-Jan-03 09:30S 36°27' E 174°52'0 0.0
2018-Jan-03 09:00S 36°27' E 174°52'0 0.0
2018-Jan-03 08:30S 36°27' E 174°52'1 1.1
2018-Jan-03 08:01S 36°27' E 174°52'2 3.4
2018-Jan-03 07:30S 36°27' E 174°54'3 6.4
2018-Jan-03 07:00S 36°24' E 174°55'3 6.5
2018-Jan-03 06:31S 36°21' E 174°57'3 6.3
2018-Jan-03 06:00S 36°18' E 174°56'3 6.6
2018-Jan-03 05:30S 36°14' E 174°56'3 6.6
2018-Jan-03 05:01S 36°12' E 174°58'8 6.3
2018-Jan-03 03:40S 36°07' E 175°07'3 6.1
2018-Jan-03 03:13S 36°06' E 175°10'3 6.5
2018-Jan-03 02:44S 36°05' E 175°13'2 5.8
2018-Jan-03 02:26S 36°03' E 175°15'2 5.4
2018-Jan-03 02:00S 36°01' E 175°16'3 5.6
2018-Jan-03 01:29S 35°60' E 175°19'34 1.0
2018-Jan-01 13:39S 35°34' E 175°47'  
2017-Dec-30 04:22S 36°15' E 174°60'2 5.1
2017-Dec-30 04:00S 36°16' E 174°60'2 5.0
2017-Dec-30 03:30S 36°19' E 174°60'3 5.0
2017-Dec-30 03:00S 36°21' E 174°59'3 5.2
2017-Dec-30 02:30S 36°24' E 174°59'3 5.2
2017-Dec-30 02:01S 36°27' E 174°59'3 5.2
2017-Dec-30 01:30S 36°29' E 174°59'3 5.1
2017-Dec-30 01:00S 36°32' E 174°58'2 5.0
2017-Dec-30 00:30S 36°34' E 174°58'3 5.1
2017-Dec-30 00:00S 36°37' E 174°57'3 5.4
2017-Dec-29 23:27S 36°39' E 174°56'3 5.7
2017-Dec-29 22:57S 36°42' E 174°55'3 5.8
2017-Dec-29 22:30S 36°44' E 174°57'4 4.7
2017-Dec-29 21:43S 36°48' E 174°57'0 0.1
2017-Dec-29 21:07S 36°48' E 174°57'0 0.0
2017-Dec-29 20:31S 36°48' E 174°57'0 0.0
2017-Dec-29 20:13S 36°48' E 174°57'0 0.0
2017-Dec-29 19:55S 36°48' E 174°57'0 0.0
2017-Dec-29 19:25S 36°48' E 174°57'0 0.0
2017-Dec-29 18:55S 36°48' E 174°57'0 0.0
2017-Dec-29 18:19S 36°48' E 174°57'0 0.0
2017-Dec-29 17:55S 36°48' E 174°57'0 0.0
2017-Dec-29 17:25S 36°48' E 174°57'0 0.0
2017-Dec-29 16:55S 36°48' E 174°57'0 0.0
2017-Dec-29 16:25S 36°48' E 174°57'0 0.0
2017-Dec-29 15:55S 36°48' E 174°57'0 0.0
2017-Dec-29 15:25S 36°48' E 174°57'0 0.0
2017-Dec-29 14:55S 36°48' E 174°57'0 0.0
2017-Dec-29 14:25S 36°48' E 174°57'0 0.1
2017-Dec-29 13:49S 36°48' E 174°57'0 0.0
2017-Dec-29 13:19S 36°48' E 174°57'0 0.0
2017-Dec-29 12:55S 36°48' E 174°57'0 0.0
2017-Dec-29 12:13S 36°48' E 174°57'0 0.1
2017-Dec-29 11:37S 36°48' E 174°57'0 0.2
2017-Dec-29 11:25S 36°48' E 174°57'0 0.0
2017-Dec-29 10:55S 36°48' E 174°57'0 0.0
2017-Dec-29 10:19S 36°48' E 174°57'0 0.0
2017-Dec-29 09:55S 36°48' E 174°57'0 0.0
2017-Dec-29 09:25S 36°48' E 174°57'0 0.0
2017-Dec-29 08:55S 36°48' E 174°57'0 0.0
2017-Dec-29 08:25S 36°48' E 174°57'0 0.0
2017-Dec-29 07:55S 36°48' E 174°57'0 0.0
2017-Dec-29 07:25S 36°48' E 174°57'0 0.0
2017-Dec-29 06:55S 36°48' E 174°57'0 0.0
2017-Dec-29 06:13S 36°48' E 174°57'0 0.0
2017-Dec-29 05:58S 36°48' E 174°57'2 3.0
2017-Dec-29 05:09S 36°49' E 174°54'2 5.9
2017-Dec-29 04:53S 36°49' E 174°52'3 6.1
2017-Dec-29 04:20S 36°50' E 174°48'2 4.6
2017-Dec-29 03:58S 36°50' E 174°46'0 0.1
2017-Dec-29 03:28S 36°50' E 174°46'0 0.0
2017-Dec-29 02:58S 36°50' E 174°46'0 0.0
2017-Dec-29 02:28S 36°50' E 174°46'0 0.0
2017-Dec-29 01:58S 36°50' E 174°46'0 0.0
2017-Dec-29 01:28S 36°50' E 174°46'0 0.0
2017-Dec-29 00:58S 36°50' E 174°46'0 0.0
2017-Dec-29 00:28S 36°50' E 174°46'0 0.0
2017-Dec-28 23:58S 36°50' E 174°46'0 0.0
2017-Dec-28 23:16S 36°50' E 174°46'0 0.0
2017-Dec-28 22:58S 36°50' E 174°46'0 0.0
2017-Dec-28 22:28S 36°50' E 174°46'0 0.0
2017-Dec-28 21:58S 36°50' E 174°46'0 0.0
2017-Dec-28 21:25S 36°50' E 174°46'0 0.0
2017-Dec-28 20:55S 36°50' E 174°46'0 0.0
2017-Dec-28 20:25S 36°50' E 174°46'0 0.0
2017-Dec-28 19:55S 36°50' E 174°46'0 0.0
2017-Dec-28 19:25S 36°50' E 174°46'0 0.0
2017-Dec-28 18:55S 36°50' E 174°46'0 0.0
2017-Dec-28 18:25S 36°50' E 174°46'0 0.0
2017-Dec-28 17:49S 36°50' E 174°46'  
Track history (hours):
 
Tides and Currents Weather Stations Pressure Air Temp Water Temp Dewpoint Dewpoint Depression Visibility Wind Speed Wind Dir Waves Ship Positions

Oceanographic research ship Robert C. Seamans (USA)

Ship's website: http://www.sea.edu/sea2000/Supporting2000/RobertSeamansIntro.htm

Detailed information on ship capabilities available from University of Delaware's Ocean Information Center.

Owner: Sea Education Association Corporation, Woods Hole, MA. More information available from US FCC via Universal Licensing System and Coast Guard Vessel Documentation Center.

Last reported at 2018-Jan-07 17:48 UTC. Time now 2018-Jan-18 17:52 UTC.
Position S 36°07' E 174°45'.
Warning: this ship's position is 11 days out of date.

Type: Sailing vessel. MMSI: 369503000.

Date/timePositionNaut miles runAvg speedWind from/ knotsBaromVisibWave heightAir tempDewpointWater temp
2018-Jan-07 17:48S 36°07' E 174°45'2 1.6
2018-Jan-07 16:40S 36°08' E 174°46'1 2.0
2018-Jan-07 16:11S 36°09' E 174°47'9 2.3
2018-Jan-07 12:24S 36°16' E 174°53'1 2.3
2018-Jan-07 12:00S 36°17' E 174°53'1 2.3
2018-Jan-07 11:30S 36°18' E 174°53'2 2.4
2018-Jan-07 10:40S 36°20' E 174°54'0 2.7
2018-Jan-07 10:29S 36°20' E 174°55'1 2.6
2018-Jan-07 10:00S 36°21' E 174°55'1 2.6
2018-Jan-07 09:30S 36°22' E 174°56'2 3.2
2018-Jan-07 09:00S 36°24' E 174°57'2 3.3
2018-Jan-07 08:30S 36°25' E 174°58'2 3.3
2018-Jan-07 08:00S 36°27' E 174°58'2 3.4
2018-Jan-07 07:30S 36°29' E 174°58'2 3.4
2018-Jan-07 07:00S 36°30' E 174°58'2 4.8
2018-Jan-07 06:30S 36°33' E 174°58'3 6.5
2018-Jan-07 06:00S 36°36' E 174°57'3 6.5
2018-Jan-07 05:30S 36°39' E 174°56'3 6.6
2018-Jan-07 05:00S 36°42' E 174°54'3 6.6
2018-Jan-07 04:29S 36°44' E 174°51'3 6.9
2018-Jan-07 04:00S 36°47' E 174°48'3 6.0
2018-Jan-07 03:26S 36°50' E 174°48'2 3.0
2018-Jan-07 02:55S 36°50' E 174°46'0 0.0
2018-Jan-07 02:25S 36°50' E 174°46'0 0.0
2018-Jan-07 01:55S 36°50' E 174°46'0 0.0
2018-Jan-07 01:25S 36°50' E 174°46'0 0.0
2018-Jan-07 00:25S 36°50' E 174°46'0 0.0
2018-Jan-06 23:59S 36°50' E 174°46'0 0.0
2018-Jan-06 23:23S 36°50' E 174°46'0 0.0
2018-Jan-06 22:59S 36°50' E 174°46'0 0.0
2018-Jan-06 22:29S 36°50' E 174°46'0 0.0
2018-Jan-06 21:59S 36°50' E 174°46'0 0.0
2018-Jan-06 21:29S 36°50' E 174°46'0 0.0
2018-Jan-06 20:59S 36°50' E 174°46'0 0.0
2018-Jan-06 20:29S 36°50' E 174°46'0 0.0
2018-Jan-06 19:53S 36°50' E 174°46'0 0.0
2018-Jan-06 19:23S 36°50' E 174°46'0 0.0
2018-Jan-06 18:59S 36°50' E 174°46'0 0.0
2018-Jan-06 18:29S 36°50' E 174°46'0 0.0
2018-Jan-06 17:53S 36°50' E 174°46'0 0.0
2018-Jan-06 17:29S 36°50' E 174°46'0 0.0
2018-Jan-06 16:59S 36°50' E 174°46'0 0.0
2018-Jan-06 16:29S 36°50' E 174°46'0 0.0
2018-Jan-06 15:59S 36°50' E 174°46'0 0.0
2018-Jan-06 15:29S 36°50' E 174°46'0 0.0
2018-Jan-06 14:59S 36°50' E 174°46'0 0.0
2018-Jan-06 14:29S 36°50' E 174°46'0 0.1
2018-Jan-06 13:59S 36°50' E 174°46'0 0.1
2018-Jan-06 13:29S 36°50' E 174°46'0 0.0
2018-Jan-06 12:59S 36°50' E 174°46'0 0.0
2018-Jan-06 12:29S 36°50' E 174°46'0 0.0
2018-Jan-06 11:59S 36°50' E 174°46'0 0.0
2018-Jan-06 11:29S 36°50' E 174°46'0 0.0
2018-Jan-06 10:59S 36°50' E 174°46'0 0.0
2018-Jan-06 10:29S 36°50' E 174°46'0 0.0
2018-Jan-06 09:59S 36°50' E 174°46'0 0.0
2018-Jan-06 09:29S 36°50' E 174°46'0 0.0
2018-Jan-06 08:59S 36°50' E 174°46'0 0.0
2018-Jan-06 08:29S 36°50' E 174°46'0 0.0
2018-Jan-06 07:53S 36°50' E 174°46'0 0.0
2018-Jan-06 07:29S 36°50' E 174°46'0 0.0
2018-Jan-06 06:59S 36°50' E 174°46'0 0.0
2018-Jan-06 06:29S 36°50' E 174°46'0 0.0
2018-Jan-06 05:59S 36°50' E 174°46'0 0.0
2018-Jan-06 05:23S 36°50' E 174°46'0 0.0
2018-Jan-06 04:59S 36°50' E 174°46'0 0.0
2018-Jan-06 04:29S 36°50' E 174°46'0 0.0
2018-Jan-06 03:59S 36°50' E 174°46'0 0.0
2018-Jan-06 03:29S 36°50' E 174°46'0 0.0
2018-Jan-06 02:59S 36°50' E 174°46'0 0.0
2018-Jan-06 02:29S 36°50' E 174°46'0 0.0
2018-Jan-06 01:59S 36°50' E 174°46'0 0.0
2018-Jan-06 01:29S 36°50' E 174°46'0 0.0
2018-Jan-06 00:59S 36°50' E 174°46'0 0.0
2018-Jan-06 00:29S 36°50' E 174°46'0 0.0
2018-Jan-05 23:59S 36°50' E 174°46'0 0.0
2018-Jan-05 23:29S 36°50' E 174°46'0 0.0
2018-Jan-05 22:59S 36°50' E 174°46'0 0.0
2018-Jan-05 22:29S 36°50' E 174°46'0 0.0
2018-Jan-05 21:59S 36°50' E 174°46'0 0.0
2018-Jan-05 21:23S 36°50' E 174°46'0 0.0
2018-Jan-05 20:59S 36°50' E 174°46'0 0.0
2018-Jan-05 20:29S 36°50' E 174°46'0 0.0
2018-Jan-05 20:00S 36°50' E 174°46'1 2.2
2018-Jan-05 19:30S 36°50' E 174°47'3 6.4
2018-Jan-05 19:01S 36°49' E 174°51'3 5.4
2018-Jan-05 18:30S 36°49' E 174°54'3 0.4
2018-Jan-05 10:28S 36°46' E 174°56'1 0.5
2018-Jan-05 08:51S 36°46' E 174°57'2 4.5
2018-Jan-05 08:30S 36°44' E 174°56'3 6.8
2018-Jan-05 08:00S 36°41' E 174°54'3 6.5
2018-Jan-05 07:30S 36°38' E 174°53'3 6.6
2018-Jan-05 07:01S 36°35' E 174°52'3 5.9
2018-Jan-05 06:30S 36°32' E 174°52'3 6.0
2018-Jan-05 06:00S 36°29' E 174°51'2 4.3
2018-Jan-05 05:30S 36°27' E 174°52'0 0.1
2018-Jan-05 05:00S 36°27' E 174°52'0 0.1
2018-Jan-05 04:30S 36°27' E 174°52'0 0.0
2018-Jan-05 04:00S 36°27' E 174°52'0 0.0
2018-Jan-05 03:30S 36°27' E 174°52'0 0.0
2018-Jan-05 03:00S 36°27' E 174°52'0 0.0
2018-Jan-05 02:30S 36°27' E 174°52'0 0.0
2018-Jan-05 01:54S 36°27' E 174°52'0 0.0
2018-Jan-05 01:30S 36°27' E 174°52'0 0.0
2018-Jan-05 00:54S 36°27' E 174°52'0 0.0
2018-Jan-05 00:30S 36°27' E 174°52'0 0.0
2018-Jan-05 00:00S 36°27' E 174°52'0 0.0
2018-Jan-04 23:30S 36°27' E 174°52'0 0.0
2018-Jan-04 23:00S 36°27' E 174°52'0 0.0
2018-Jan-04 22:30S 36°27' E 174°52'0 0.0
2018-Jan-04 22:00S 36°27' E 174°52'0 0.0
2018-Jan-04 21:30S 36°27' E 174°52'0 0.0
2018-Jan-04 21:00S 36°27' E 174°52'0 0.0
2018-Jan-04 20:30S 36°27' E 174°52'0 0.1
2018-Jan-04 20:00S 36°27' E 174°52'0 0.0
2018-Jan-04 19:30S 36°27' E 174°52'0 0.0
2018-Jan-04 19:00S 36°27' E 174°52'0 0.0
2018-Jan-04 18:30S 36°27' E 174°52'0 0.0
2018-Jan-04 18:00S 36°27' E 174°52'0 0.0
2018-Jan-04 17:30S 36°27' E 174°52'0 0.0
2018-Jan-04 17:00S 36°27' E 174°52'0 0.0
2018-Jan-04 16:30S 36°27' E 174°52'0 0.0
2018-Jan-04 16:00S 36°27' E 174°52'0 0.0
2018-Jan-04 15:30S 36°27' E 174°52'0 0.0
2018-Jan-04 15:00S 36°27' E 174°52'0 0.0
2018-Jan-04 14:30S 36°27' E 174°52'0 0.0
2018-Jan-04 14:00S 36°27' E 174°52'0 0.0
2018-Jan-04 13:30S 36°27' E 174°52'0 0.0
2018-Jan-04 13:00S 36°27' E 174°52'0 0.0
2018-Jan-04 12:30S 36°27' E 174°52'0 0.0
2018-Jan-04 12:00S 36°27' E 174°52'0 0.0
2018-Jan-04 11:30S 36°27' E 174°52'0 0.0
2018-Jan-04 11:00S 36°27' E 174°52'0 0.1
2018-Jan-04 10:30S 36°27' E 174°52'0 0.0
2018-Jan-04 10:00S 36°27' E 174°52'0 0.0
2018-Jan-04 09:30S 36°27' E 174°52'0 0.0
2018-Jan-04 09:00S 36°27' E 174°52'0 0.0
2018-Jan-04 08:30S 36°27' E 174°52'0 0.1
2018-Jan-04 08:00S 36°27' E 174°52'0 0.1
2018-Jan-04 07:30S 36°27' E 174°52'0 0.1
2018-Jan-04 07:00S 36°27' E 174°52'0 0.1
2018-Jan-04 06:30S 36°27' E 174°52'0 0.0
2018-Jan-04 06:00S 36°27' E 174°52'0 0.0
2018-Jan-04 05:30S 36°27' E 174°52'0 0.1
2018-Jan-04 05:00S 36°27' E 174°52'0 0.1
2018-Jan-04 04:30S 36°27' E 174°52'0 0.0
2018-Jan-04 04:00S 36°27' E 174°52'0 0.0
2018-Jan-04 03:30S 36°27' E 174°52'0 0.0
2018-Jan-04 03:00S 36°27' E 174°52'0 0.1
2018-Jan-04 02:30S 36°27' E 174°52'0 0.1
2018-Jan-04 02:00S 36°27' E 174°52'0 0.0
2018-Jan-04 01:30S 36°27' E 174°52'0 0.0
2018-Jan-04 01:00S 36°27' E 174°52'0 0.1
2018-Jan-04 00:30S 36°27' E 174°52'0 0.1
2018-Jan-04 00:00S 36°27' E 174°52'0 0.0
2018-Jan-03 23:30S 36°27' E 174°52'0 0.0
2018-Jan-03 23:00S 36°27' E 174°52'0 0.0
2018-Jan-03 22:30S 36°27' E 174°52'0 0.0
2018-Jan-03 22:00S 36°27' E 174°52'0 0.0
2018-Jan-03 21:24S 36°27' E 174°52'0 0.0
2018-Jan-03 21:00S 36°27' E 174°52'0 0.0
2018-Jan-03 20:30S 36°27' E 174°52'0 0.0
2018-Jan-03 20:00S 36°27' E 174°52'0 0.0
2018-Jan-03 19:30S 36°27' E 174°52'0 0.0
2018-Jan-03 19:00S 36°27' E 174°52'0 0.0
2018-Jan-03 18:30S 36°27' E 174°52'0 0.0
2018-Jan-03 18:00S 36°27' E 174°52'0 0.0
2018-Jan-03 17:30S 36°27' E 174°52'0 0.0
2018-Jan-03 17:00S 36°27' E 174°52'0 0.0
2018-Jan-03 16:30S 36°27' E 174°52'0 0.0
2018-Jan-03 16:00S 36°27' E 174°52'0 0.0
2018-Jan-03 15:30S 36°27' E 174°52'0 0.0
2018-Jan-03 15:00S 36°27' E 174°52'0 0.1
2018-Jan-03 14:30S 36°27' E 174°52'0 0.1
2018-Jan-03 14:00S 36°27' E 174°52'0 0.0
2018-Jan-03 13:30S 36°27' E 174°52'0 0.0
2018-Jan-03 13:00S 36°27' E 174°52'0 0.1
2018-Jan-03 12:30S 36°27' E 174°52'0 0.0
2018-Jan-03 11:54S 36°27' E 174°52'0 0.0
2018-Jan-03 11:30S 36°27' E 174°52'0 0.0
2018-Jan-03 11:00S 36°27' E 174°52'0 0.0
2018-Jan-03 10:30S 36°27' E 174°52'0 0.0
2018-Jan-03 10:00S 36°27' E 174°52'0 0.0
2018-Jan-03 09:30S 36°27' E 174°52'0 0.0
2018-Jan-03 09:00S 36°27' E 174°52'0 0.0
2018-Jan-03 08:30S 36°27' E 174°52'1 1.1
2018-Jan-03 08:01S 36°27' E 174°52'2 3.4
2018-Jan-03 07:30S 36°27' E 174°54'3 6.4
2018-Jan-03 07:00S 36°24' E 174°55'3 6.5
2018-Jan-03 06:31S 36°21' E 174°57'3 6.3
2018-Jan-03 06:00S 36°18' E 174°56'3 6.6
2018-Jan-03 05:30S 36°14' E 174°56'3 6.6
2018-Jan-03 05:01S 36°12' E 174°58'8 6.3
2018-Jan-03 03:40S 36°07' E 175°07'3 6.1
2018-Jan-03 03:13S 36°06' E 175°10'3 6.5
2018-Jan-03 02:44S 36°05' E 175°13'2 5.8
2018-Jan-03 02:26S 36°03' E 175°15'2 5.4
2018-Jan-03 02:00S 36°01' E 175°16'3 5.6
2018-Jan-03 01:29S 35°60' E 175°19'34 1.0
2018-Jan-01 13:39S 35°34' E 175°47'  
2017-Dec-30 04:22S 36°15' E 174°60'2 5.1
2017-Dec-30 04:00S 36°16' E 174°60'2 5.0
2017-Dec-30 03:30S 36°19' E 174°60'3 5.0
2017-Dec-30 03:00S 36°21' E 174°59'3 5.2
2017-Dec-30 02:30S 36°24' E 174°59'3 5.2
2017-Dec-30 02:01S 36°27' E 174°59'3 5.2
2017-Dec-30 01:30S 36°29' E 174°59'3 5.1
2017-Dec-30 01:00S 36°32' E 174°58'2 5.0
2017-Dec-30 00:30S 36°34' E 174°58'3 5.1
2017-Dec-30 00:00S 36°37' E 174°57'3 5.4
2017-Dec-29 23:27S 36°39' E 174°56'3 5.7
2017-Dec-29 22:57S 36°42' E 174°55'3 5.8
2017-Dec-29 22:30S 36°44' E 174°57'4 4.7
2017-Dec-29 21:43S 36°48' E 174°57'0 0.1
2017-Dec-29 21:07S 36°48' E 174°57'0 0.0
2017-Dec-29 20:31S 36°48' E 174°57'0 0.0
2017-Dec-29 20:13S 36°48' E 174°57'0 0.0
2017-Dec-29 19:55S 36°48' E 174°57'0 0.0
2017-Dec-29 19:25S 36°48' E 174°57'0 0.0
2017-Dec-29 18:55S 36°48' E 174°57'0 0.0
2017-Dec-29 18:19S 36°48' E 174°57'0 0.0
2017-Dec-29 17:55S 36°48' E 174°57'0 0.0
2017-Dec-29 17:25S 36°48' E 174°57'0 0.0
2017-Dec-29 16:55S 36°48' E 174°57'0 0.0
2017-Dec-29 16:25S 36°48' E 174°57'0 0.0
2017-Dec-29 15:55S 36°48' E 174°57'0 0.0
2017-Dec-29 15:25S 36°48' E 174°57'0 0.0
2017-Dec-29 14:55S 36°48' E 174°57'0 0.0
2017-Dec-29 14:25S 36°48' E 174°57'0 0.1
2017-Dec-29 13:49S 36°48' E 174°57'0 0.0
2017-Dec-29 13:19S 36°48' E 174°57'0 0.0
2017-Dec-29 12:55S 36°48' E 174°57'0 0.0
2017-Dec-29 12:13S 36°48' E 174°57'0 0.1
2017-Dec-29 11:37S 36°48' E 174°57'0 0.2
2017-Dec-29 11:25S 36°48' E 174°57'0 0.0
2017-Dec-29 10:55S 36°48' E 174°57'0 0.0
2017-Dec-29 10:19S 36°48' E 174°57'0 0.0
2017-Dec-29 09:55S 36°48' E 174°57'0 0.0
2017-Dec-29 09:25S 36°48' E 174°57'0 0.0
2017-Dec-29 08:55S 36°48' E 174°57'0 0.0
2017-Dec-29 08:25S 36°48' E 174°57'0 0.0
2017-Dec-29 07:55S 36°48' E 174°57'0 0.0
2017-Dec-29 07:25S 36°48' E 174°57'0 0.0
2017-Dec-29 06:55S 36°48' E 174°57'0 0.0
2017-Dec-29 06:13S 36°48' E 174°57'0 0.0
2017-Dec-29 05:58S 36°48' E 174°57'2 3.0
2017-Dec-29 05:09S 36°49' E 174°54'2 5.9
2017-Dec-29 04:53S 36°49' E 174°52'3 6.1
2017-Dec-29 04:20S 36°50' E 174°48'2 4.6
2017-Dec-29 03:58S 36°50' E 174°46'0 0.1
2017-Dec-29 03:28S 36°50' E 174°46'0 0.0
2017-Dec-29 02:58S 36°50' E 174°46'0 0.0
2017-Dec-29 02:28S 36°50' E 174°46'0 0.0
2017-Dec-29 01:58S 36°50' E 174°46'0 0.0
2017-Dec-29 01:28S 36°50' E 174°46'0 0.0
2017-Dec-29 00:58S 36°50' E 174°46'0 0.0
2017-Dec-29 00:28S 36°50' E 174°46'0 0.0
2017-Dec-28 23:58S 36°50' E 174°46'0 0.0
2017-Dec-28 23:16S 36°50' E 174°46'0 0.0
2017-Dec-28 22:58S 36°50' E 174°46'0 0.0
2017-Dec-28 22:28S 36°50' E 174°46'0 0.0
2017-Dec-28 21:58S 36°50' E 174°46'0 0.0
2017-Dec-28 21:25S 36°50' E 174°46'0 0.0
2017-Dec-28 20:55S 36°50' E 174°46'0 0.0
2017-Dec-28 20:25S 36°50' E 174°46'0 0.0
2017-Dec-28 19:55S 36°50' E 174°46'0 0.0
2017-Dec-28 19:25S 36°50' E 174°46'0 0.0
2017-Dec-28 18:55S 36°50' E 174°46'0 0.0
2017-Dec-28 18:25S 36°50' E 174°46'0 0.0
2017-Dec-28 17:49S 36°50' E 174°46'  

Dump ship's entire track history